Terminal Aerodrome Forecast
Issued by NWS

Home | Current Version | Previous Version | Text Only | Print | Product List | Glossary On
Versions: 1 2 3 4 5 6 7 8 9 10 11 12 13 14 15 16
000
FTUS45 KREV 252320
TAFTRK
TAF
KTRK 252320Z 2600/2624 29010KT P6SM VCSH BKN035 OVC050
     FM260300 VRB03KT P6SM SCT035 BKN050
     FM261900 30009KT P6SM SCT045=

USA.gov is the U.S. government's official web portal to all federal, state and local government web resources and services.